createdAt,value
2022-08-09T00:00:15.888Z,10.80
2022-08-09T00:02:49.956Z,10.80
2022-08-09T00:06:18.832Z,10.90
2022-08-09T00:08:13.025Z,10.80
2022-08-09T00:11:00.609Z,10.80
2022-08-09T00:13:33.949Z,10.80
2022-08-09T00:16:09.059Z,10.80
2022-08-09T00:18:41.236Z,10.80
2022-08-09T00:21:10.764Z,10.80
2022-08-09T00:23:55.056Z,10.90
2022-08-09T00:26:32.946Z,10.90
2022-08-09T00:29:02.741Z,10.90
2022-08-09T00:31:57.150Z,10.80
2022-08-09T00:34:19.887Z,10.80
2022-08-09T00:36:48.803Z,10.80
2022-08-09T00:40:12.917Z,10.70
2022-08-09T00:44:09.895Z,10.60
2022-08-09T00:44:56.840Z,10.50
2022-08-09T00:47:25.517Z,10.40
2022-08-09T00:49:56.490Z,10.40
2022-08-09T00:52:30.242Z,10.40
2022-08-09T00:55:00.225Z,10.30
2022-08-09T00:57:34.580Z,10.20
2022-08-09T01:00:21.347Z,10.20
2022-08-09T01:02:53.706Z,10.20
2022-08-09T01:05:53.707Z,10.20
2022-08-09T01:08:31.047Z,10.20
2022-08-09T01:11:25.029Z,10.20
2022-08-09T01:14:01.930Z,10.20
2022-08-09T01:16:36.034Z,10.10
2022-08-09T01:19:16.890Z,10.10
2022-08-09T01:22:16.476Z,10.00
2022-08-09T01:24:55.208Z,10.00
2022-08-09T01:27:27.654Z,10.00
2022-08-09T01:30:01.294Z,9.90
2022-08-09T01:32:35.219Z,9.90
2022-08-09T01:35:28.764Z,9.90
2022-08-09T01:38:07.804Z,9.80
2022-08-09T01:40:45.004Z,9.80
2022-08-09T01:43:24.250Z,9.80
2022-08-09T01:45:57.983Z,9.70
2022-08-09T01:48:31.350Z,9.70
2022-08-09T01:51:00.643Z,9.70
2022-08-09T01:53:40.910Z,9.70
2022-08-09T01:56:11.057Z,9.70
2022-08-09T01:58:43.759Z,9.70
2022-08-09T02:01:18.731Z,9.70
2022-08-09T02:03:48.500Z,9.70
2022-08-09T02:06:39.215Z,9.70
2022-08-09T02:09:15.834Z,9.60
2022-08-09T02:11:45.481Z,9.60
2022-08-09T02:14:26.578Z,9.60
2022-08-09T02:17:14.974Z,9.60
2022-08-09T02:19:45.861Z,9.50
2022-08-09T02:22:37.860Z,9.50
2022-08-09T02:25:15.310Z,9.40
2022-08-09T02:28:00.470Z,9.40
2022-08-09T02:30:41.392Z,9.40
2022-08-09T02:33:14.269Z,9.40
2022-08-09T02:36:02.805Z,9.30
2022-08-09T02:38:37.775Z,9.30
2022-08-09T02:41:10.529Z,9.30
2022-08-09T02:43:53.899Z,9.30
2022-08-09T02:46:28.751Z,9.30
2022-08-09T02:49:01.522Z,9.30
2022-08-09T02:51:40.069Z,9.30
2022-08-09T02:54:12.323Z,9.20
2022-08-09T02:56:51.328Z,9.30
2022-08-09T02:59:26.272Z,9.20
2022-08-09T03:02:09.697Z,9.20
2022-08-09T03:04:46.649Z,9.20
2022-08-09T03:07:20.540Z,9.20
2022-08-09T03:09:56.318Z,9.20
2022-08-09T03:12:27.064Z,9.20
2022-08-09T03:14:55.885Z,9.20
2022-08-09T03:17:27.176Z,9.20
2022-08-09T03:20:02.794Z,9.20
2022-08-09T03:22:41.323Z,9.20
2022-08-09T03:25:26.603Z,9.20
2022-08-09T03:28:02.082Z,9.20
2022-08-09T03:30:33.193Z,9.20
2022-08-09T03:33:12.843Z,9.20
2022-08-09T03:36:12.948Z,9.10
2022-08-09T03:38:37.327Z,9.10
2022-08-09T03:41:14.635Z,9.20
2022-08-09T03:44:03.589Z,9.10
2022-08-09T03:46:33.843Z,9.10
2022-08-09T03:49:08.023Z,9.10
2022-08-09T03:51:55.339Z,9.10
2022-08-09T03:54:32.219Z,9.20
2022-08-09T03:57:04.551Z,9.20
2022-08-09T03:59:54.629Z,9.20
2022-08-09T04:02:27.608Z,9.20
2022-08-09T04:05:01.334Z,9.20
2022-08-09T04:07:52.662Z,9.30
2022-08-09T04:10:28.917Z,9.30
2022-08-09T04:13:00.964Z,9.40
2022-08-09T04:16:17.912Z,9.40
2022-08-09T04:18:19.457Z,9.40
2022-08-09T04:20:51.826Z,9.40
2022-08-09T04:23:24.292Z,9.40
2022-08-09T04:25:53.329Z,9.40
2022-08-09T04:28:33.916Z,9.50
2022-08-09T04:31:07.980Z,9.50
2022-08-09T04:33:52.132Z,9.60
2022-08-09T04:36:25.993Z,9.60
2022-08-09T04:38:55.138Z,9.70
2022-08-09T04:41:31.959Z,9.90
2022-08-09T04:44:06.683Z,9.90
2022-08-09T04:46:59.173Z,10.10
2022-08-09T04:49:54.105Z,10.30
2022-08-09T04:52:26.400Z,10.60
2022-08-09T04:54:55.944Z,11.00
2022-08-09T04:57:25.237Z,11.40
2022-08-09T04:59:55.309Z,12.00
2022-08-09T05:02:24.975Z,12.70
2022-08-09T05:04:56.411Z,13.50
2022-08-09T05:07:27.897Z,14.20
2022-08-09T05:10:01.585Z,15.00
2022-08-09T05:12:31.309Z,15.80
2022-08-09T05:15:03.652Z,16.40
2022-08-09T05:18:55.366Z,17.10
2022-08-09T05:20:29.821Z,17.60
2022-08-09T05:23:54.378Z,18.10
2022-08-09T05:25:51.044Z,18.40
2022-08-09T05:28:20.056Z,18.80
2022-08-09T05:30:48.674Z,19.30
2022-08-09T05:33:20.101Z,19.70
2022-08-09T05:35:54.939Z,20.10
2022-08-09T05:38:27.857Z,20.40
2022-08-09T05:40:56.275Z,20.90
2022-08-09T05:43:24.695Z,21.00
2022-08-09T05:45:59.953Z,21.40
2022-08-09T05:48:33.006Z,22.00
2022-08-09T05:51:42.302Z,22.10
2022-08-09T05:53:57.242Z,22.10
2022-08-09T05:56:27.124Z,22.50
2022-08-09T05:58:58.467Z,23.40
2022-08-09T06:01:33.765Z,24.20
2022-08-09T06:04:05.607Z,24.70
2022-08-09T06:06:34.392Z,25.30
2022-08-09T06:09:10.066Z,26.00
2022-08-09T06:11:57.434Z,27.00
2022-08-09T06:14:26.433Z,27.80
2022-08-09T06:16:57.500Z,28.40
2022-08-09T06:19:27.633Z,28.50
2022-08-09T06:21:58.777Z,28.60
2022-08-09T06:24:29.097Z,29.00
2022-08-09T06:26:57.425Z,28.70
2022-08-09T06:29:26.981Z,29.60
2022-08-09T06:32:52.842Z,30.50
2022-08-09T06:34:44.255Z,30.70
2022-08-09T06:37:14.648Z,30.50
2022-08-09T06:39:58.093Z,30.90
2022-08-09T06:42:30.908Z,30.90
2022-08-09T06:45:09.234Z,30.70
2022-08-09T06:48:00.916Z,31.50
2022-08-09T06:50:31.174Z,32.00
2022-08-09T06:53:01.803Z,32.30
2022-08-09T06:55:33.200Z,33.00
2022-08-09T06:58:04.389Z,32.50
2022-08-09T07:00:50.247Z,31.80
2022-08-09T07:03:28.354Z,31.30
2022-08-09T07:06:04.389Z,30.80
2022-08-09T07:08:37.425Z,30.80
2022-08-09T07:11:12.334Z,30.90
2022-08-09T07:14:04.126Z,30.90
2022-08-09T07:16:41.750Z,31.20
2022-08-09T07:19:23.045Z,31.00
2022-08-09T07:21:57.259Z,31.40
2022-08-09T07:24:31.349Z,31.20
2022-08-09T07:27:03.565Z,31.80
2022-08-09T07:29:42.898Z,31.80
2022-08-09T07:32:11.327Z,31.70
2022-08-09T07:34:39.497Z,31.70
2022-08-09T07:37:15.560Z,31.90
2022-08-09T07:39:44.554Z,32.00
2022-08-09T07:42:16.031Z,31.70
2022-08-09T07:44:51.574Z,31.20
2022-08-09T07:47:23.462Z,30.80
2022-08-09T07:50:05.549Z,30.80
2022-08-09T07:52:38.303Z,30.50
2022-08-09T07:55:09.724Z,30.80
2022-08-09T07:57:46.484Z,31.40
2022-08-09T08:00:20.599Z,32.00
2022-08-09T08:03:08.165Z,32.20
2022-08-09T08:05:53.477Z,32.60
2022-08-09T08:09:00.594Z,32.40
2022-08-09T08:12:11.149Z,32.40
2022-08-09T08:14:04.744Z,31.90
2022-08-09T08:16:34.990Z,31.60
2022-08-09T08:19:04.483Z,31.60
2022-08-09T08:21:33.264Z,31.10
2022-08-09T08:24:12.166Z,31.20
2022-08-09T08:26:55.811Z,31.30
2022-08-09T08:29:28.154Z,31.90
2022-08-09T08:32:04.191Z,31.90
2022-08-09T08:34:36.427Z,31.60
2022-08-09T08:37:05.587Z,32.00
2022-08-09T08:39:43.446Z,32.00
2022-08-09T08:42:13.003Z,31.50
2022-08-09T08:44:43.886Z,31.40
2022-08-09T08:47:15.550Z,31.20
2022-08-09T08:49:48.148Z,30.50
2022-08-09T08:52:52.521Z,30.60
2022-08-09T08:55:08.753Z,31.40
2022-08-09T08:57:37.569Z,31.70
2022-08-09T09:00:20.826Z,31.90
2022-08-09T09:03:04.713Z,32.20
2022-08-09T09:05:58.914Z,32.20
2022-08-09T09:08:37.936Z,31.40
2022-08-09T09:11:17.344Z,31.60
2022-08-09T09:13:57.187Z,32.30
2022-08-09T09:16:32.357Z,32.50
2022-08-09T09:22:04.250Z,30.90
2022-08-09T09:24:37.768Z,31.00
2022-08-09T09:27:08.641Z,31.50
2022-08-09T09:30:12.113Z,31.30
2022-08-09T09:32:32.194Z,30.90
2022-08-09T09:35:07.576Z,30.30
2022-08-09T09:37:40.539Z,30.00
2022-08-09T09:40:11.565Z,29.70
2022-08-09T09:42:46.335Z,29.10
2022-08-09T09:45:26.683Z,28.90
2022-08-09T09:48:04.275Z,29.10
2022-08-09T09:50:51.768Z,29.00
2022-08-09T09:53:34.318Z,28.70
2022-08-09T09:56:20.134Z,28.30
2022-08-09T09:58:59.325Z,28.50
2022-08-09T10:01:36.815Z,29.30
2022-08-09T10:04:16.040Z,29.40
2022-08-09T10:06:51.627Z,30.20
2022-08-09T10:09:23.288Z,30.60
2022-08-09T10:12:12.851Z,31.00
2022-08-09T10:14:48.445Z,31.10
2022-08-09T10:17:39.853Z,30.40
2022-08-09T10:20:27.747Z,30.20
2022-08-09T10:23:14.069Z,29.30
2022-08-09T10:26:07.414Z,28.30
2022-08-09T10:28:36.248Z,28.40
2022-08-09T10:34:10.318Z,29.60
2022-08-09T10:36:45.120Z,30.30
2022-08-09T10:39:15.602Z,30.50
2022-08-09T10:41:44.516Z,30.00
2022-08-09T10:44:12.852Z,29.10
2022-08-09T10:48:13.482Z,28.20
2022-08-09T10:50:14.868Z,28.30
2022-08-09T10:53:12.845Z,29.70
2022-08-09T10:55:58.715Z,30.90
2022-08-09T10:58:33.409Z,31.80
2022-08-09T11:03:01.654Z,32.10
2022-08-09T11:04:19.893Z,32.20
2022-08-09T11:07:56.934Z,32.50
2022-08-09T11:10:18.221Z,31.80
2022-08-09T11:13:49.806Z,30.50
2022-08-09T11:16:35.239Z,30.40
2022-08-09T11:19:09.863Z,30.20
2022-08-09T11:21:57.347Z,29.80
2022-08-09T11:25:05.582Z,28.60
2022-08-09T11:28:05.115Z,28.70
2022-08-09T11:30:37.589Z,29.20
2022-08-09T11:33:15.395Z,30.20
2022-08-09T11:35:49.539Z,30.90
2022-08-09T11:38:21.998Z,31.20
2022-08-09T11:40:54.686Z,31.40
2022-08-09T11:43:43.479Z,31.90
2022-08-09T11:46:11.798Z,33.00
2022-08-09T11:48:51.139Z,33.20
2022-08-09T11:53:03.370Z,32.20
2022-08-09T11:54:27.668Z,31.80
2022-08-09T11:57:16.620Z,30.80
2022-08-09T11:59:58.324Z,30.60
2022-08-09T12:02:37.350Z,30.40
2022-08-09T12:05:17.232Z,30.50
2022-08-09T12:07:46.202Z,30.70
2022-08-09T12:10:39.513Z,30.50
2022-08-09T12:13:03.515Z,30.20
2022-08-09T12:15:52.925Z,29.90
2022-08-09T12:18:30.157Z,30.00
2022-08-09T12:21:00.629Z,30.10
2022-08-09T12:23:56.347Z,31.10
2022-08-09T12:26:26.070Z,32.30
2022-08-09T12:28:59.481Z,33.60
2022-08-09T12:32:02.162Z,32.70
2022-08-09T12:34:37.629Z,31.60
2022-08-09T12:37:23.804Z,31.50
2022-08-09T12:40:08.657Z,31.50
2022-08-09T12:42:37.513Z,31.40
2022-08-09T12:45:35.045Z,30.90
2022-08-09T12:48:00.102Z,31.00
2022-08-09T12:50:29.239Z,32.00
2022-08-09T12:53:08.891Z,32.70
2022-08-09T12:56:14.089Z,32.80
2022-08-09T12:58:33.919Z,32.20
2022-08-09T13:01:04.443Z,32.90
2022-08-09T13:03:53.688Z,33.50
2022-08-09T13:06:34.479Z,34.60
2022-08-09T13:09:11.104Z,33.30
2022-08-09T13:11:42.803Z,32.10
2022-08-09T13:14:42.413Z,30.90
2022-08-09T13:17:02.840Z,30.70
2022-08-09T13:20:08.803Z,30.40
2022-08-09T13:22:36.095Z,30.90
2022-08-09T13:25:14.980Z,31.70
2022-08-09T13:27:48.636Z,32.50
2022-08-09T13:30:51.032Z,31.70
2022-08-09T13:33:22.422Z,31.80
2022-08-09T13:36:39.026Z,31.90
2022-08-09T13:38:56.687Z,31.00
2022-08-09T13:41:59.115Z,29.70
2022-08-09T13:44:17.505Z,28.40
2022-08-09T13:47:26.990Z,27.70
2022-08-09T13:49:39.695Z,27.30
2022-08-09T13:52:25.475Z,26.90
2022-08-09T13:55:00.100Z,26.70
2022-08-09T13:57:36.829Z,26.50
2022-08-09T14:00:12.260Z,26.40
2022-08-09T14:03:17.053Z,26.30
2022-08-09T14:05:57.161Z,26.20
2022-08-09T14:08:20.759Z,26.30
2022-08-09T14:10:52.960Z,26.40
2022-08-09T14:13:27.889Z,26.90
2022-08-09T14:16:14.424Z,27.40
2022-08-09T14:18:45.826Z,27.40
2022-08-09T14:21:20.498Z,27.40
2022-08-09T14:23:55.248Z,27.30
2022-08-09T14:26:32.825Z,27.10
2022-08-09T14:29:07.511Z,26.90
2022-08-09T14:31:52.002Z,26.70
2022-08-09T14:34:31.263Z,26.70
2022-08-09T14:37:06.855Z,27.30
2022-08-09T14:39:46.575Z,27.10
2022-08-09T14:42:30.530Z,26.60
2022-08-09T14:46:51.213Z,25.90
2022-08-09T14:47:58.144Z,25.50
2022-08-09T14:50:29.059Z,25.40
2022-08-09T14:52:57.798Z,25.30
2022-08-09T14:55:31.970Z,25.10
2022-08-09T14:58:02.821Z,25.00
2022-08-09T15:00:32.246Z,25.00
2022-08-09T15:03:02.165Z,25.00
2022-08-09T15:05:32.163Z,25.00
2022-08-09T15:08:00.443Z,25.20
2022-08-09T15:10:31.801Z,25.80
2022-08-09T15:13:03.187Z,27.00
2022-08-09T15:15:34.463Z,27.60
2022-08-09T15:18:08.312Z,28.00
2022-08-09T15:21:55.261Z,28.10
2022-08-09T15:24:02.620Z,28.10
2022-08-09T15:26:31.450Z,27.80
2022-08-09T15:29:02.421Z,27.80
2022-08-09T15:31:40.921Z,27.40
2022-08-09T15:34:18.102Z,27.10
2022-08-09T15:37:01.148Z,26.40
2022-08-09T15:39:34.670Z,26.00
2022-08-09T15:42:19.677Z,25.60
2022-08-09T15:44:50.101Z,25.30
2022-08-09T15:47:22.551Z,25.10
2022-08-09T15:50:04.655Z,25.00
2022-08-09T15:52:34.070Z,25.00
2022-08-09T15:55:02.503Z,25.00
2022-08-09T15:57:35.733Z,25.10
2022-08-09T16:00:24.309Z,26.10
2022-08-09T16:02:56.518Z,26.70
2022-08-09T16:05:47.488Z,27.30
2022-08-09T16:08:30.695Z,28.40
2022-08-09T16:11:01.382Z,29.80
2022-08-09T16:14:04.765Z,30.50
2022-08-09T16:16:19.894Z,31.10
2022-08-09T16:18:48.138Z,30.90
2022-08-09T16:21:25.611Z,30.70
2022-08-09T16:23:58.323Z,29.70
2022-08-09T16:26:34.669Z,28.90
2022-08-09T16:29:11.465Z,28.50
2022-08-09T16:32:20.131Z,28.20
2022-08-09T16:34:56.182Z,27.80
2022-08-09T16:37:20.314Z,27.70
2022-08-09T16:40:09.935Z,27.60
2022-08-09T16:42:39.154Z,27.40
2022-08-09T16:45:18.644Z,27.30
2022-08-09T16:48:40.999Z,27.40
2022-08-09T16:50:38.455Z,27.40
2022-08-09T16:53:09.055Z,27.40
2022-08-09T16:55:59.774Z,27.60
2022-08-09T16:58:28.223Z,27.40
2022-08-09T17:01:05.665Z,27.00
2022-08-09T17:03:34.812Z,26.70
2022-08-09T17:06:28.208Z,26.60
2022-08-09T17:09:02.840Z,26.60
2022-08-09T17:11:40.676Z,26.10
2022-08-09T17:14:26.080Z,25.60
2022-08-09T17:16:59.689Z,25.10
2022-08-09T17:19:47.212Z,24.70
2022-08-09T17:22:24.716Z,24.40
2022-08-09T17:25:03.801Z,24.30
2022-08-09T17:27:33.775Z,24.10
2022-08-09T17:30:04.669Z,24.10
2022-08-09T17:32:38.591Z,23.90
2022-08-09T17:35:12.305Z,23.90
2022-08-09T17:38:02.349Z,23.70
2022-08-09T17:40:30.354Z,23.50
2022-08-09T17:43:10.796Z,23.40
2022-08-09T17:46:02.743Z,23.20
2022-08-09T17:48:38.610Z,23.00
2022-08-09T17:51:17.507Z,22.90
2022-08-09T17:53:53.281Z,22.60
2022-08-09T17:56:27.483Z,22.40
2022-08-09T17:58:58.287Z,22.10
2022-08-09T18:02:03.717Z,22.00
2022-08-09T18:04:16.204Z,21.70
2022-08-09T18:06:54.435Z,21.40
2022-08-09T18:09:25.368Z,21.20
2022-08-09T18:12:17.361Z,21.10
2022-08-09T18:14:53.815Z,20.80
2022-08-09T18:17:27.146Z,20.60
2022-08-09T18:20:56.018Z,20.30
2022-08-09T18:23:05.166Z,20.10
2022-08-09T18:25:51.105Z,19.80
2022-08-09T18:30:34.486Z,19.70
2022-08-09T18:31:10.829Z,19.60
2022-08-09T18:33:39.999Z,19.40
2022-08-09T18:36:25.424Z,19.30
2022-08-09T18:39:00.883Z,19.10
2022-08-09T18:41:34.200Z,18.90
2022-08-09T18:44:07.979Z,18.70
2022-08-09T18:46:51.158Z,18.50
2022-08-09T18:49:32.370Z,18.40
2022-08-09T18:52:11.793Z,18.30
2022-08-09T18:54:49.731Z,18.20
2022-08-09T18:57:22.907Z,18.10
2022-08-09T18:59:57.465Z,17.90
2022-08-09T19:02:32.251Z,17.80
2022-08-09T19:05:03.873Z,17.70
2022-08-09T19:08:03.967Z,17.60
2022-08-09T19:10:37.228Z,17.50
2022-08-09T19:13:20.902Z,17.30
2022-08-09T19:15:52.811Z,17.30
2022-08-09T19:18:37.420Z,17.10
2022-08-09T19:21:10.590Z,17.10
2022-08-09T19:24:32.096Z,16.90
2022-08-09T19:26:35.185Z,16.80
2022-08-09T19:29:15.216Z,16.70
2022-08-09T19:31:51.168Z,16.60
2022-08-09T19:34:22.651Z,16.60
2022-08-09T19:36:52.711Z,16.50
2022-08-09T19:39:43.539Z,16.40
2022-08-09T19:42:14.616Z,16.30
2022-08-09T19:44:43.822Z,16.10
2022-08-09T19:47:23.402Z,16.10
2022-08-09T19:50:10.247Z,16.10
2022-08-09T19:52:51.312Z,16.00
2022-08-09T19:55:31.124Z,16.00
2022-08-09T19:58:16.307Z,16.00
2022-08-09T20:00:46.739Z,16.00
2022-08-09T20:04:10.891Z,15.90
2022-08-09T20:06:22.434Z,15.80
2022-08-09T20:08:51.230Z,15.70
2022-08-09T20:11:21.473Z,15.60
2022-08-09T20:13:54.835Z,15.50
2022-08-09T20:16:34.502Z,15.40
2022-08-09T20:19:48.964Z,15.40
2022-08-09T20:21:59.849Z,15.30
2022-08-09T20:24:33.475Z,15.30
2022-08-09T20:27:08.040Z,15.20
2022-08-09T20:29:38.636Z,15.10
2022-08-09T20:32:30.185Z,15.00
2022-08-09T20:34:56.496Z,14.90
2022-08-09T20:37:25.010Z,14.80
2022-08-09T20:40:18.047Z,14.70
2022-08-09T20:42:46.588Z,14.70
2022-08-09T20:46:01.865Z,14.60
2022-08-09T20:48:21.374Z,14.60
2022-08-09T20:50:55.682Z,14.40
2022-08-09T20:53:37.382Z,14.40
2022-08-09T20:56:19.946Z,14.30
2022-08-09T20:58:58.216Z,14.20
2022-08-09T21:01:35.443Z,14.20
2022-08-09T21:05:54.481Z,14.20
2022-08-09T21:07:11.735Z,14.10
2022-08-09T21:09:45.971Z,14.10
2022-08-09T21:15:15.176Z,14.00
2022-08-09T21:18:21.741Z,13.90
2022-08-09T21:20:32.209Z,13.90
2022-08-09T21:23:00.947Z,13.90
2022-08-09T21:25:55.744Z,13.90
2022-08-09T21:28:34.599Z,13.90
2022-08-09T21:31:16.212Z,13.80
2022-08-09T21:33:50.649Z,13.70
2022-08-09T21:36:23.423Z,13.70
2022-08-09T21:38:57.324Z,13.60
2022-08-09T21:42:04.787Z,13.50
2022-08-09T21:44:33.111Z,13.40
2022-08-09T21:47:05.857Z,13.40
2022-08-09T21:49:39.412Z,13.30
2022-08-09T21:52:14.690Z,13.20
2022-08-09T21:54:50.776Z,13.10
2022-08-09T21:57:39.262Z,13.00
2022-08-09T22:00:16.961Z,13.10
2022-08-09T22:02:51.109Z,13.00
2022-08-09T22:05:35.583Z,13.00
2022-08-09T22:08:13.951Z,12.90
2022-08-09T22:11:48.953Z,12.90
2022-08-09T22:13:35.254Z,12.90
2022-08-09T22:16:07.732Z,12.90
2022-08-09T22:18:53.215Z,12.80
2022-08-09T22:21:24.500Z,12.80
2022-08-09T22:24:01.121Z,12.70
2022-08-09T22:26:35.323Z,12.70
2022-08-09T22:29:09.117Z,12.60
2022-08-09T22:31:53.155Z,12.50
2022-08-09T22:34:27.142Z,12.50
2022-08-09T22:36:55.867Z,12.50
2022-08-09T22:39:55.707Z,12.50
2022-08-09T22:42:22.088Z,12.40
2022-08-09T22:45:00.548Z,12.40
2022-08-09T22:48:29.697Z,12.40
2022-08-09T22:50:31.500Z,12.30
2022-08-09T22:53:03.905Z,12.40
2022-08-09T22:56:05.926Z,12.40
2022-08-09T22:58:32.413Z,12.40
2022-08-09T23:01:03.107Z,12.40
2022-08-09T23:04:04.778Z,12.30
2022-08-09T23:06:35.229Z,12.30
2022-08-09T23:09:05.647Z,12.20
2022-08-09T23:11:34.022Z,12.20
2022-08-09T23:14:03.302Z,12.10
2022-08-09T23:16:32.352Z,12.20
2022-08-09T23:19:00.540Z,12.10
2022-08-09T23:21:34.626Z,12.10
2022-08-09T23:24:07.505Z,12.00
2022-08-09T23:26:36.247Z,11.90
2022-08-09T23:29:05.476Z,11.90
2022-08-09T23:31:33.771Z,11.80
2022-08-09T23:34:03.704Z,11.80
2022-08-09T23:36:34.162Z,11.70
2022-08-09T23:39:03.422Z,11.70
2022-08-09T23:41:31.671Z,11.70
2022-08-09T23:44:01.112Z,11.70
2022-08-09T23:46:29.712Z,11.70
2022-08-09T23:48:58.170Z,11.60
2022-08-09T23:51:27.117Z,11.60
2022-08-09T23:54:02.262Z,11.50
2022-08-09T23:56:53.691Z,11.50
2022-08-09T23:59:20.679Z,11.50
